Terminal Aerodrome Forecast
Issued by NWS

Current Version | Previous Version | Text Only | Print | Product List | Glossary Off
Versions: 1 2 3 4 5 6 7 8 9 10 11 12 13 14 15 16 17 18 19 20 21 22 23 24 25 26

000
FTUS41 KILN 031700 RRA
TAFLUK
TAF
KLUK 031744Z 0318/0418 20008KT 4SM -RA BR OVC013
      TEMPO 0318/0322 1 1/2SM -RA BR OVC007
     FM032200 25010KT 2SM -RA BR OVC007
     FM040600 30008KT 2SM -RA BR OVC009
     FM041500 33011KT 1 1/2SM -SN BR OVC005=

USA.gov is the U.S. government's official web portal to all federal, state and local government web resources and services.